Saint Paul, Nebraska
Current Conditions -  °F | °C
As of 11:53 PM on Tuesday 21 Oct 2014 (Local Time) from KGRI Reporting Station
Clear Clear  
Wind Chill: 61°   Ceiling: Unl
Heat Index: 61°   Visibility: 10mi
Dew Point: 48°   Wind: 14mph
Humidity: 62%   Direction: 160°SSE
Pressure: 29.97"   Gusts: NA
Location:  41.21°N, 98.46°W
Report Text: KGRI 220453Z AUTO 16012KT 10SM CLR 16/09 A2997 RMK AO2 SLP140 T01610089
Loading
Personal Weather Stations






























Interactive Weather Map
Tropical Storm Tracking
New forecast layout! Learn more

10-Day Weather Forecast

Advertisements
Track Severe Weather on mobile